Terminal Aerodrome Forecast
Issued by NWS

Home | Current Version | Previous Version | Text Only | Print | Product List | Glossary On
Versions: 1 2 3 4 5 6 7 8 9 10 11 12 13 14 15 16 17 18 19 20 21 22 23 24 25 26 27 28 29
000
FTUS46 KMTR 300539
TAFSFO
TAF
KSFO 300539Z 3006/3112 27016KT P6SM SCT012
      TEMPO 3007/3011 BKN012
     FM301100 28008KT P6SM BKN012
     FM301700 28011KT P6SM FEW012
     FM302100 29020G28KT P6SM FEW020
     FM310400 28017KT P6SM FEW015=

USA.gov is the U.S. government's official web portal to all federal, state and local government web resources and services.